createdAt,value
2017-04-27T00:00:05.092Z,88.82
2017-04-27T00:01:05.662Z,89.30
2017-04-27T00:02:06.232Z,89.58
2017-04-27T00:03:06.803Z,90.34
2017-04-27T00:04:07.385Z,90.34
2017-04-27T00:05:07.954Z,90.06
2017-04-27T00:06:08.524Z,89.96
2017-04-27T00:07:09.093Z,90.06
2017-04-27T00:08:09.663Z,89.58
2017-04-27T00:09:10.232Z,90.44
2017-04-27T00:10:10.800Z,90.34
2017-04-27T00:11:11.369Z,89.77
2017-04-27T00:12:11.938Z,90.25
2017-04-27T00:13:12.509Z,90.25
2017-04-27T00:14:13.093Z,90.25
2017-04-27T00:15:13.662Z,89.58
2017-04-27T00:16:14.231Z,90.06
2017-04-27T00:17:14.800Z,89.68
2017-04-27T00:18:15.386Z,89.68
2017-04-27T00:19:15.970Z,89.87
2017-04-27T00:20:16.538Z,89.58
2017-04-27T00:21:17.110Z,89.68
2017-04-27T00:22:17.679Z,89.68
2017-04-27T00:23:18.249Z,89.58
2017-04-27T00:24:18.833Z,90.11
2017-04-27T00:25:19.404Z,90.58
2017-04-27T00:26:19.974Z,90.58
2017-04-27T00:27:20.543Z,91.15
2017-04-27T00:28:21.113Z,90.81
2017-04-27T00:29:21.687Z,89.87
2017-04-27T00:30:22.252Z,89.96
2017-04-27T00:31:22.836Z,90.58
2017-04-27T00:32:23.412Z,90.67
2017-04-27T00:33:23.974Z,90.77
2017-04-27T00:34:24.546Z,90.30
2017-04-27T00:35:25.109Z,90.25
2017-04-27T00:36:25.679Z,90.44
2017-04-27T00:37:26.249Z,90.53
2017-04-27T00:38:26.816Z,90.06
2017-04-27T00:39:27.386Z,90.91
2017-04-27T00:40:27.956Z,90.91
2017-04-27T00:41:28.525Z,90.25
2017-04-27T00:42:29.096Z,90.53
2017-04-27T00:43:29.666Z,90.91
2017-04-27T00:44:30.237Z,90.34
2017-04-27T00:45:30.807Z,90.15
2017-04-27T00:46:31.378Z,90.25
2017-04-27T00:47:31.960Z,89.92
2017-04-27T00:48:32.530Z,89.96
2017-04-27T00:49:33.104Z,90.20
2017-04-27T00:50:33.673Z,89.96
2017-04-27T00:51:34.245Z,89.54
2017-04-27T00:52:34.814Z,89.87
2017-04-27T00:53:35.383Z,89.82
2017-04-27T00:54:35.953Z,89.82
2017-04-27T00:55:36.523Z,89.44
2017-04-27T00:56:37.092Z,89.82
2017-04-27T00:57:37.662Z,90.30
2017-04-27T00:58:38.232Z,90.30
2017-04-27T00:59:38.801Z,89.73
2017-04-27T01:00:39.376Z,89.82
2017-04-27T01:01:39.941Z,90.58
2017-04-27T01:02:40.510Z,90.58
2017-04-27T01:03:41.080Z,91.05
2017-04-27T01:04:41.649Z,90.86
2017-04-27T01:05:42.218Z,91.62
2017-04-27T01:06:42.787Z,90.96
2017-04-27T01:07:43.356Z,91.62
2017-04-27T01:08:43.926Z,91.62
2017-04-27T01:09:44.495Z,91.72
2017-04-27T01:10:45.066Z,91.43
2017-04-27T01:11:45.639Z,91.34
2017-04-27T01:12:46.207Z,91.15
2017-04-27T01:13:46.778Z,91.81
2017-04-27T01:14:47.371Z,91.53
2017-04-27T01:15:47.932Z,91.43
2017-04-27T01:16:48.502Z,91.91
2017-04-27T01:17:49.071Z,91.72
2017-04-27T01:18:49.640Z,91.72
2017-04-27T01:19:50.222Z,92.10
2017-04-27T01:20:50.792Z,91.81
2017-04-27T01:21:51.363Z,92.14
2017-04-27T01:22:51.932Z,92.05
2017-04-27T01:23:52.505Z,91.48
2017-04-27T01:24:53.070Z,91.86
2017-04-27T01:25:53.639Z,91.76
2017-04-27T01:26:54.208Z,91.29
2017-04-27T01:27:54.777Z,91.67
2017-04-27T01:28:55.346Z,91.19
2017-04-27T01:29:55.915Z,91.10
2017-04-27T01:30:56.487Z,91.38
2017-04-27T01:31:57.052Z,91.29
2017-04-27T01:32:57.635Z,91.10
2017-04-27T01:33:58.203Z,91.57
2017-04-27T01:34:58.771Z,91.86
2017-04-27T01:35:59.338Z,91.86
2017-04-27T01:36:59.908Z,91.67
2017-04-27T01:38:00.473Z,91.67
2017-04-27T01:39:01.043Z,91.57
2017-04-27T01:40:01.607Z,91.57
2017-04-27T01:41:02.179Z,91.57
2017-04-27T01:42:02.748Z,91.95
2017-04-27T01:43:03.310Z,91.76
2017-04-27T01:44:03.879Z,91.38
2017-04-27T01:45:04.448Z,92.05
2017-04-27T01:46:05.015Z,92.24
2017-04-27T01:47:05.596Z,92.14
2017-04-27T01:48:06.165Z,91.67
2017-04-27T01:49:06.731Z,91.86
2017-04-27T01:50:07.300Z,92.24
2017-04-27T01:51:07.869Z,92.05
2017-04-27T01:52:08.439Z,91.95
2017-04-27T01:53:09.007Z,91.10
2017-04-27T01:54:09.576Z,91.67
2017-04-27T01:55:10.157Z,91.57
2017-04-27T01:56:10.727Z,91.48
2017-04-27T01:57:11.298Z,91.29
2017-04-27T01:58:11.866Z,91.48
2017-04-27T01:59:12.435Z,91.95
2017-04-27T02:00:13.002Z,92.05
2017-04-27T02:01:13.570Z,91.95
2017-04-27T02:02:14.137Z,91.86
2017-04-27T02:03:14.706Z,91.95
2017-04-27T02:04:15.286Z,91.76
2017-04-27T02:05:15.855Z,92.33
2017-04-27T02:06:16.423Z,92.05
2017-04-27T02:07:16.992Z,91.95
2017-04-27T02:08:17.563Z,92.14
2017-04-27T02:09:18.133Z,91.48
2017-04-27T02:10:18.714Z,91.38
2017-04-27T02:11:19.285Z,91.38
2017-04-27T02:12:19.853Z,91.19
2017-04-27T02:13:20.424Z,91.57
2017-04-27T02:14:20.991Z,91.95
2017-04-27T02:15:21.561Z,91.38
2017-04-27T02:16:22.127Z,91.57
2017-04-27T02:17:22.698Z,91.57
2017-04-27T02:18:23.265Z,91.57
2017-04-27T02:19:23.833Z,91.48
2017-04-27T02:20:24.402Z,91.19
2017-04-27T02:21:24.971Z,91.57
2017-04-27T02:22:25.538Z,91.38
2017-04-27T02:23:26.118Z,91.57
2017-04-27T02:24:26.693Z,91.38
2017-04-27T02:25:27.271Z,91.95
2017-04-27T02:26:27.839Z,91.86
2017-04-27T02:27:28.405Z,91.67
2017-04-27T02:28:28.974Z,92.14
2017-04-27T02:29:29.542Z,91.67
2017-04-27T02:30:30.109Z,91.67
2017-04-27T02:31:30.677Z,91.95
2017-04-27T02:32:31.244Z,91.95
2017-04-27T02:33:31.812Z,92.05
2017-04-27T02:34:32.379Z,92.24
2017-04-27T02:35:32.946Z,91.76
2017-04-27T02:36:33.514Z,92.10
2017-04-27T02:37:34.082Z,91.95
2017-04-27T02:38:34.650Z,91.91
2017-04-27T02:39:35.219Z,92.00
2017-04-27T02:40:35.786Z,92.38
2017-04-27T02:41:36.353Z,92.66
2017-04-27T02:42:36.920Z,92.10
2017-04-27T02:43:37.489Z,91.72
2017-04-27T02:44:38.055Z,91.72
2017-04-27T02:45:38.622Z,91.91
2017-04-27T02:46:39.190Z,91.91
2017-04-27T02:47:39.757Z,91.91
2017-04-27T02:48:40.326Z,92.10
2017-04-27T02:49:40.906Z,91.91
2017-04-27T02:50:41.474Z,91.91
2017-04-27T02:51:42.041Z,91.43
2017-04-27T02:52:42.610Z,91.24
2017-04-27T02:53:43.185Z,91.43
2017-04-27T02:54:43.747Z,91.05
2017-04-27T02:55:44.316Z,91.62
2017-04-27T02:56:44.883Z,91.24
2017-04-27T02:57:45.450Z,91.24
2017-04-27T02:58:46.018Z,92.29
2017-04-27T02:59:46.587Z,92.10
2017-04-27T03:00:47.155Z,92.38
2017-04-27T03:01:47.723Z,91.91
2017-04-27T03:02:48.293Z,92.38
2017-04-27T03:03:48.862Z,92.38
2017-04-27T03:04:49.429Z,92.29
2017-04-27T03:05:49.998Z,92.00
2017-04-27T03:06:50.570Z,92.10
2017-04-27T03:07:51.135Z,92.38
2017-04-27T03:08:51.701Z,92.19
2017-04-27T03:09:52.271Z,91.72
2017-04-27T03:10:52.839Z,92.10
2017-04-27T03:11:53.409Z,92.66
2017-04-27T03:12:53.974Z,92.76
2017-04-27T03:13:54.544Z,92.94
2017-04-27T03:14:55.111Z,92.85
2017-04-27T03:15:55.695Z,92.94
2017-04-27T03:16:56.263Z,92.38
2017-04-27T03:17:56.829Z,91.72
2017-04-27T03:18:57.399Z,92.29
2017-04-27T03:19:57.966Z,92.29
2017-04-27T03:20:58.535Z,92.66
2017-04-27T03:21:59.102Z,92.38
2017-04-27T03:22:59.671Z,92.10
2017-04-27T03:24:00.240Z,92.38
2017-04-27T03:25:00.808Z,91.72
2017-04-27T03:26:01.376Z,92.00
2017-04-27T03:27:01.946Z,92.38
2017-04-27T03:28:02.513Z,92.10
2017-04-27T03:29:03.082Z,92.71
2017-04-27T03:30:03.649Z,92.80
2017-04-27T03:31:04.219Z,92.33
2017-04-27T03:32:04.787Z,92.38
2017-04-27T03:33:05.356Z,92.00
2017-04-27T03:34:05.935Z,91.48
2017-04-27T03:35:06.503Z,91.53
2017-04-27T03:36:07.072Z,92.05
2017-04-27T03:37:07.642Z,92.61
2017-04-27T03:38:08.208Z,92.99
2017-04-27T03:39:08.787Z,93.28
2017-04-27T03:40:09.354Z,93.09
2017-04-27T03:41:09.921Z,92.90
2017-04-27T03:42:10.488Z,93.09
2017-04-27T03:43:11.056Z,93.47
2017-04-27T03:44:11.623Z,92.71
2017-04-27T03:45:12.190Z,92.52
2017-04-27T03:46:12.757Z,93.56
2017-04-27T03:47:13.337Z,92.80
2017-04-27T03:48:13.904Z,92.33
2017-04-27T03:49:14.472Z,92.71
2017-04-27T03:50:15.041Z,92.43
2017-04-27T03:51:15.622Z,93.66
2017-04-27T03:52:16.201Z,93.47
2017-04-27T03:53:16.781Z,93.85
2017-04-27T03:54:17.351Z,94.23
2017-04-27T03:55:17.921Z,93.85
2017-04-27T03:56:18.487Z,94.32
2017-04-27T03:57:19.057Z,93.75
2017-04-27T03:58:19.623Z,93.94
2017-04-27T03:59:20.192Z,94.32
2017-04-27T04:00:20.759Z,94.23
2017-04-27T04:01:21.327Z,94.60
2017-04-27T04:02:21.892Z,94.13
2017-04-27T04:03:22.461Z,94.23
2017-04-27T04:04:23.030Z,93.99
2017-04-27T04:05:23.604Z,93.66
2017-04-27T04:06:24.168Z,93.47
2017-04-27T04:07:24.737Z,93.75
2017-04-27T04:08:25.307Z,94.13
2017-04-27T04:09:25.875Z,94.32
2017-04-27T04:10:26.444Z,93.80
2017-04-27T04:11:27.011Z,93.13
2017-04-27T04:12:27.579Z,93.89
2017-04-27T04:13:28.146Z,92.38
2017-04-27T04:14:28.715Z,92.76
2017-04-27T04:15:29.283Z,93.23
2017-04-27T04:16:29.850Z,92.47
2017-04-27T04:17:30.418Z,92.94
2017-04-27T04:18:30.988Z,92.71
2017-04-27T04:19:31.555Z,92.76
2017-04-27T04:20:32.125Z,93.23
2017-04-27T04:21:32.696Z,93.04
2017-04-27T04:22:33.265Z,92.94
2017-04-27T04:23:33.833Z,92.66
2017-04-27T04:24:34.403Z,92.57
2017-04-27T04:25:34.970Z,92.29
2017-04-27T04:26:35.540Z,92.43
2017-04-27T04:27:36.109Z,93.32
2017-04-27T04:28:36.677Z,92.94
2017-04-27T04:29:37.246Z,92.76
2017-04-27T04:30:37.816Z,92.99
2017-04-27T04:31:38.398Z,92.61
2017-04-27T04:32:38.965Z,92.85
2017-04-27T04:33:39.534Z,92.05
2017-04-27T04:34:40.102Z,92.52
2017-04-27T04:35:40.671Z,93.09
2017-04-27T04:36:41.241Z,93.37
2017-04-27T04:37:41.811Z,93.66
2017-04-27T04:38:42.381Z,93.09
2017-04-27T04:39:42.953Z,93.32
2017-04-27T04:40:43.525Z,93.61
2017-04-27T04:41:44.095Z,93.47
2017-04-27T04:42:44.667Z,93.13
2017-04-27T04:43:45.236Z,93.70
2017-04-27T04:44:45.806Z,93.99
2017-04-27T04:45:46.375Z,93.80
2017-04-27T04:46:46.943Z,93.32
2017-04-27T04:47:47.515Z,93.70
2017-04-27T04:48:48.085Z,93.51
2017-04-27T04:49:48.656Z,93.51
2017-04-27T04:50:49.227Z,93.23
2017-04-27T04:51:49.797Z,93.13
2017-04-27T04:52:50.366Z,93.32
2017-04-27T04:53:50.936Z,93.32
2017-04-27T04:54:51.505Z,92.94
2017-04-27T04:55:52.075Z,93.51
2017-04-27T04:56:52.647Z,93.80
2017-04-27T04:57:53.217Z,93.42
2017-04-27T04:58:53.789Z,93.99
2017-04-27T04:59:54.358Z,93.42
2017-04-27T05:00:54.929Z,93.04
2017-04-27T05:01:55.499Z,92.76
2017-04-27T05:02:56.065Z,93.04
2017-04-27T05:03:56.636Z,92.94
2017-04-27T05:04:57.207Z,92.94
2017-04-27T05:05:57.778Z,92.85
2017-04-27T05:06:58.349Z,92.76
2017-04-27T05:07:58.922Z,92.38
2017-04-27T05:08:59.491Z,92.85
2017-04-27T05:10:00.070Z,92.94
2017-04-27T05:11:00.632Z,92.85
2017-04-27T05:12:01.203Z,92.29
2017-04-27T05:13:01.775Z,92.85
2017-04-27T05:14:02.347Z,92.66
2017-04-27T05:15:02.919Z,93.13
2017-04-27T05:16:03.504Z,92.19
2017-04-27T05:17:04.077Z,92.33
2017-04-27T05:18:04.664Z,92.52
2017-04-27T05:19:05.283Z,93.51
2017-04-27T05:20:05.857Z,93.61
2017-04-27T05:21:06.427Z,92.80
2017-04-27T05:22:07.001Z,92.71
2017-04-27T05:23:07.572Z,92.90
2017-04-27T05:24:08.144Z,93.27
2017-04-27T05:25:08.718Z,92.43
2017-04-27T05:26:09.289Z,93.37
2017-04-27T05:27:09.862Z,93.84
2017-04-27T05:28:10.434Z,93.65
2017-04-27T05:29:11.003Z,92.33
2017-04-27T05:30:11.607Z,91.95
2017-04-27T05:31:12.153Z,91.67
2017-04-27T05:32:12.736Z,91.57
2017-04-27T05:33:13.308Z,91.57
2017-04-27T05:34:13.880Z,90.58
2017-04-27T05:35:14.451Z,90.77
2017-04-27T05:36:15.023Z,91.14
2017-04-27T05:37:15.593Z,91.81
2017-04-27T05:38:16.169Z,90.95
2017-04-27T05:39:16.749Z,90.20
2017-04-27T05:40:17.318Z,91.52
2017-04-27T05:41:17.891Z,90.01
2017-04-27T05:42:18.462Z,90.39
2017-04-27T05:43:19.034Z,90.86
2017-04-27T05:44:19.619Z,90.39
2017-04-27T05:45:20.202Z,90.48
2017-04-27T05:46:20.786Z,89.82
2017-04-27T05:47:21.355Z,89.72
2017-04-27T05:48:21.927Z,89.06
2017-04-27T05:49:22.500Z,88.68
2017-04-27T05:50:23.072Z,88.02
2017-04-27T05:51:23.642Z,87.64
2017-04-27T05:52:24.217Z,87.64
2017-04-27T05:53:24.787Z,87.26
2017-04-27T05:54:25.358Z,87.26
2017-04-27T05:55:25.930Z,87.35
2017-04-27T05:56:26.503Z,87.87
2017-04-27T05:57:27.075Z,87.87
2017-04-27T05:58:27.645Z,86.64
2017-04-27T05:59:28.218Z,87.68
2017-04-27T06:00:28.789Z,85.69
2017-04-27T06:01:29.359Z,86.74
2017-04-27T06:02:29.933Z,86.26
2017-04-27T06:03:30.503Z,86.74
2017-04-27T06:04:31.077Z,87.40
2017-04-27T06:05:31.648Z,86.83
2017-04-27T06:06:32.220Z,86.07
2017-04-27T06:07:32.790Z,85.69
2017-04-27T06:08:33.362Z,85.88
2017-04-27T06:09:33.936Z,85.97
2017-04-27T06:10:34.508Z,85.13
2017-04-27T06:11:35.081Z,85.55
2017-04-27T06:12:35.652Z,86.49
2017-04-27T06:13:36.222Z,85.17
2017-04-27T06:14:36.796Z,83.65
2017-04-27T06:15:37.381Z,83.17
2017-04-27T06:16:37.953Z,83.65
2017-04-27T06:17:38.540Z,83.36
2017-04-27T06:18:39.112Z,84.31
2017-04-27T06:19:39.682Z,82.51
2017-04-27T06:20:40.255Z,81.85
2017-04-27T06:21:40.828Z,82.13
2017-04-27T06:22:41.403Z,81.75
2017-04-27T06:23:41.974Z,82.13
2017-04-27T06:24:42.548Z,80.99
2017-04-27T06:25:43.122Z,81.47
2017-04-27T06:26:43.696Z,82.74
2017-04-27T06:27:44.281Z,82.32
2017-04-27T06:28:44.855Z,80.80
2017-04-27T06:29:45.428Z,80.80
2017-04-27T06:30:45.999Z,81.88
2017-04-27T06:31:46.570Z,81.13
2017-04-27T06:32:47.141Z,81.51
2017-04-27T06:33:47.715Z,81.79
2017-04-27T06:34:48.389Z,80.08
2017-04-27T06:35:48.975Z,80.08
2017-04-27T06:36:49.547Z,81.60
2017-04-27T06:37:50.122Z,80.18
2017-04-27T06:38:50.707Z,80.08
2017-04-27T06:39:51.279Z,80.18
2017-04-27T06:40:51.854Z,80.27
2017-04-27T06:41:52.426Z,81.32
2017-04-27T06:42:52.999Z,80.84
2017-04-27T06:43:53.571Z,80.94
2017-04-27T06:44:54.244Z,81.13
2017-04-27T06:45:54.830Z,80.18
2017-04-27T06:46:55.411Z,81.07
2017-04-27T06:47:55.979Z,79.84
2017-04-27T06:48:56.561Z,77.66
2017-04-27T06:49:57.135Z,77.71
2017-04-27T06:50:57.709Z,76.86
2017-04-27T06:51:58.296Z,77.47
2017-04-27T06:52:58.882Z,76.48
2017-04-27T06:53:59.458Z,76.95
2017-04-27T06:55:00.029Z,77.14
2017-04-27T06:56:00.602Z,78.13
2017-04-27T06:57:01.176Z,78.23
2017-04-27T06:58:01.749Z,78.99
2017-04-27T06:59:02.334Z,78.13
2017-04-27T07:00:02.910Z,78.32
2017-04-27T07:01:03.485Z,78.32
2017-04-27T07:02:04.056Z,75.00
2017-04-27T07:03:04.629Z,74.90
2017-04-27T07:04:05.203Z,74.43
2017-04-27T07:05:05.777Z,74.81
2017-04-27T07:06:06.352Z,75.00
2017-04-27T07:07:06.924Z,75.09
2017-04-27T07:08:07.497Z,74.33
2017-04-27T07:09:08.085Z,73.38
2017-04-27T07:10:08.659Z,73.76
2017-04-27T07:11:09.230Z,74.15
2017-04-27T07:12:09.804Z,73.38
2017-04-27T07:13:10.378Z,73.76
2017-04-27T07:14:10.951Z,74.18
2017-04-27T07:15:11.526Z,74.85
2017-04-27T07:16:12.113Z,73.90
2017-04-27T07:17:12.700Z,72.56
2017-04-27T07:18:13.274Z,72.85
2017-04-27T07:19:13.848Z,72.00
2017-04-27T07:20:14.522Z,70.67
2017-04-27T07:21:15.095Z,71.14
2017-04-27T07:22:15.668Z,71.33
2017-04-27T07:23:16.240Z,71.81
2017-04-27T07:24:16.814Z,70.19
2017-04-27T07:25:17.389Z,70.67
2017-04-27T07:26:17.961Z,70.67
2017-04-27T07:27:18.536Z,68.96
2017-04-27T07:28:19.112Z,66.67
2017-04-27T07:29:19.683Z,67.53
2017-04-27T07:30:20.255Z,68.96
2017-04-27T07:31:20.830Z,68.10
2017-04-27T07:32:21.405Z,66.77
2017-04-27T07:33:21.977Z,65.79
2017-04-27T07:34:22.555Z,66.11
2017-04-27T07:35:23.123Z,66.11
2017-04-27T07:36:23.697Z,65.73
2017-04-27T07:37:24.271Z,65.35
2017-04-27T07:38:24.844Z,65.54
2017-04-27T07:39:25.428Z,65.44
2017-04-27T07:40:26.001Z,66.30
2017-04-27T07:41:26.575Z,65.73
2017-04-27T07:42:27.150Z,65.57
2017-04-27T07:43:27.724Z,65.57
2017-04-27T07:44:28.299Z,64.53
2017-04-27T07:45:28.871Z,64.62
2017-04-27T07:46:29.442Z,63.54
2017-04-27T07:47:30.015Z,64.34
2017-04-27T07:48:30.652Z,64.62
2017-04-27T07:49:31.226Z,64.14
2017-04-27T07:50:31.800Z,64.43
2017-04-27T07:51:32.375Z,63.57
2017-04-27T07:52:32.947Z,63.67
2017-04-27T07:53:33.521Z,62.81
2017-04-27T07:54:34.095Z,62.34
2017-04-27T07:55:34.770Z,61.58
2017-04-27T07:56:35.346Z,62.15
2017-04-27T07:57:35.921Z,60.06
2017-04-27T07:58:36.494Z,60.25
2017-04-27T07:59:37.081Z,59.96
2017-04-27T08:00:37.653Z,60.16
2017-04-27T08:01:38.228Z,61.96
2017-04-27T08:02:38.801Z,62.12
2017-04-27T08:03:39.374Z,62.31
2017-04-27T08:04:39.949Z,62.02
2017-04-27T08:05:40.524Z,61.29
2017-04-27T08:06:41.099Z,58.44
2017-04-27T08:07:41.671Z,58.83
2017-04-27T08:08:42.246Z,60.06
2017-04-27T08:09:42.819Z,59.49
2017-04-27T08:10:43.393Z,59.77
2017-04-27T08:11:43.974Z,59.99
2017-04-27T08:12:44.556Z,58.16
2017-04-27T08:13:45.130Z,58.57
2017-04-27T08:14:45.715Z,58.57
2017-04-27T08:15:46.289Z,57.04
2017-04-27T08:16:46.864Z,56.63
2017-04-27T08:17:47.440Z,56.95
2017-04-27T08:18:48.012Z,57.11
2017-04-27T08:19:48.587Z,57.62
2017-04-27T08:20:49.160Z,56.95
2017-04-27T08:21:49.733Z,56.38
2017-04-27T08:22:50.307Z,57.71
2017-04-27T08:23:50.882Z,58.47
2017-04-27T08:24:51.457Z,59.05
2017-04-27T08:25:52.032Z,59.58
2017-04-27T08:26:52.607Z,60.85
2017-04-27T08:27:53.182Z,60.28
2017-04-27T08:28:53.758Z,59.71
2017-04-27T08:29:54.333Z,59.61
2017-04-27T08:30:54.906Z,60.47
2017-04-27T08:31:55.484Z,59.80
2017-04-27T08:32:56.059Z,61.23
2017-04-27T08:33:56.633Z,60.75
2017-04-27T08:34:57.209Z,60.91
2017-04-27T08:35:57.783Z,61.39
2017-04-27T08:36:58.360Z,59.96
2017-04-27T08:37:58.934Z,58.92
2017-04-27T08:38:59.509Z,58.73
2017-04-27T08:40:00.096Z,59.77
2017-04-27T08:41:00.673Z,59.77
2017-04-27T08:42:01.244Z,59.80
2017-04-27T08:43:01.818Z,58.44
2017-04-27T08:44:02.394Z,58.57
2017-04-27T08:45:02.970Z,59.23
2017-04-27T08:46:03.544Z,59.80
2017-04-27T08:47:04.125Z,59.23
2017-04-27T08:48:04.696Z,59.52
2017-04-27T08:49:05.279Z,60.38
2017-04-27T08:50:05.850Z,60.60
2017-04-27T08:51:06.423Z,59.36
2017-04-27T08:52:06.999Z,57.90
2017-04-27T08:53:07.573Z,58.69
2017-04-27T08:54:08.147Z,59.23
2017-04-27T08:55:08.728Z,59.99
2017-04-27T08:56:09.299Z,61.04
2017-04-27T08:57:09.873Z,60.41
2017-04-27T08:58:10.463Z,58.50
2017-04-27T08:59:11.039Z,57.14
2017-04-27T09:00:11.613Z,58.37
2017-04-27T09:01:12.190Z,59.42
2017-04-27T09:02:12.763Z,58.76
2017-04-27T09:03:13.341Z,56.95
2017-04-27T09:04:13.921Z,57.84
2017-04-27T09:05:14.491Z,58.22
2017-04-27T09:06:15.080Z,57.07
2017-04-27T09:07:15.654Z,54.89
2017-04-27T09:08:16.230Z,54.98
2017-04-27T09:09:16.808Z,55.74
2017-04-27T09:10:17.383Z,56.63
2017-04-27T09:11:17.960Z,54.89
2017-04-27T09:12:18.535Z,54.86
2017-04-27T09:13:19.111Z,55.65
2017-04-27T09:14:19.687Z,54.50
2017-04-27T09:15:20.272Z,53.24
2017-04-27T09:16:20.854Z,53.34
2017-04-27T09:17:21.431Z,52.86
2017-04-27T09:18:22.009Z,53.36
2017-04-27T09:19:22.582Z,52.51
2017-04-27T09:20:23.161Z,50.77
2017-04-27T09:21:23.737Z,49.75
2017-04-27T09:22:24.314Z,48.42
2017-04-27T09:23:24.905Z,48.03
2017-04-27T09:24:25.480Z,48.16
2017-04-27T09:25:26.056Z,48.06
2017-04-27T09:26:26.634Z,47.11
2017-04-27T09:27:27.211Z,46.54
2017-04-27T09:28:27.789Z,47.30
2017-04-27T09:29:28.365Z,47.68
2017-04-27T09:30:28.939Z,48.61
2017-04-27T09:31:29.517Z,48.99
2017-04-27T09:32:30.091Z,50.04
2017-04-27T09:33:30.669Z,50.99
2017-04-27T09:34:31.243Z,50.99
2017-04-27T09:35:31.818Z,51.62
2017-04-27T09:36:32.392Z,52.48
2017-04-27T09:37:32.967Z,52.96
2017-04-27T09:38:33.545Z,53.72
2017-04-27T09:39:34.119Z,54.60
2017-04-27T09:40:34.695Z,54.32
2017-04-27T09:41:35.269Z,54.03
2017-04-27T09:42:35.843Z,53.65
2017-04-27T09:43:36.417Z,53.36
2017-04-27T09:44:36.993Z,53.27
2017-04-27T09:45:37.581Z,51.93
2017-04-27T09:46:38.158Z,50.70
2017-04-27T09:47:38.735Z,50.35
2017-04-27T09:48:39.311Z,49.40
2017-04-27T09:49:39.887Z,49.96
2017-04-27T09:50:40.464Z,50.35
2017-04-27T09:51:41.053Z,48.63
2017-04-27T09:52:41.629Z,45.49
2017-04-27T09:53:42.206Z,43.66
2017-04-27T09:54:42.796Z,44.80
2017-04-27T09:55:43.373Z,46.70
2017-04-27T09:56:43.948Z,48.03
2017-04-27T09:57:44.524Z,48.44
2017-04-27T09:58:45.101Z,48.35
2017-04-27T09:59:45.677Z,47.75
2017-04-27T10:00:46.256Z,48.25
2017-04-27T10:01:46.832Z,48.44
2017-04-27T10:02:47.412Z,48.06
2017-04-27T10:03:47.983Z,46.54
2017-04-27T10:04:48.561Z,47.13
2017-04-27T10:05:49.139Z,48.66
2017-04-27T10:06:49.716Z,47.68
2017-04-27T10:07:50.294Z,47.61
2017-04-27T10:08:50.887Z,47.42
2017-04-27T10:09:51.464Z,47.20
2017-04-27T10:10:52.040Z,48.25
2017-04-27T10:11:52.617Z,48.54
2017-04-27T10:12:53.191Z,49.18
2017-04-27T10:13:53.767Z,49.46
2017-04-27T10:14:54.341Z,50.42
2017-04-27T10:15:54.919Z,50.42
2017-04-27T10:16:55.495Z,50.99
2017-04-27T10:17:56.070Z,52.51
2017-04-27T10:18:56.646Z,52.70
2017-04-27T10:19:57.222Z,53.46
2017-04-27T10:20:57.810Z,54.32
2017-04-27T10:21:58.387Z,53.46
2017-04-27T10:22:58.959Z,53.17
2017-04-27T10:23:59.536Z,53.36
2017-04-27T10:25:00.112Z,53.46
2017-04-27T10:26:00.690Z,52.41
2017-04-27T10:27:01.265Z,52.80
2017-04-27T10:28:01.839Z,52.98
2017-04-27T10:29:02.414Z,52.13
2017-04-27T10:30:02.989Z,50.60
2017-04-27T10:31:03.567Z,50.42
2017-04-27T10:32:04.146Z,50.54
2017-04-27T10:33:04.722Z,49.80
2017-04-27T10:34:05.312Z,48.47
2017-04-27T10:35:05.888Z,47.80
2017-04-27T10:36:06.467Z,47.32
2017-04-27T10:37:07.045Z,47.16
2017-04-27T10:38:07.623Z,46.68
2017-04-27T10:39:08.199Z,46.97
2017-04-27T10:40:08.780Z,44.18
2017-04-27T10:41:09.370Z,44.75
2017-04-27T10:42:09.948Z,42.47
2017-04-27T10:43:10.527Z,43.32
2017-04-27T10:44:11.103Z,44.18
2017-04-27T10:45:11.684Z,45.51
2017-04-27T10:46:12.260Z,43.90
2017-04-27T10:47:12.839Z,44.59
2017-04-27T10:48:13.430Z,43.94
2017-04-27T10:49:14.021Z,41.89
2017-04-27T10:50:14.598Z,40.75
2017-04-27T10:51:15.176Z,40.97
2017-04-27T10:52:15.756Z,42.30
2017-04-27T10:53:16.348Z,41.63
2017-04-27T10:54:16.927Z,42.58
2017-04-27T10:55:17.505Z,43.16
2017-04-27T10:56:18.083Z,44.01
2017-04-27T10:57:18.660Z,44.11
2017-04-27T10:58:19.241Z,42.40
2017-04-27T10:59:19.817Z,40.87
2017-04-27T11:00:20.393Z,42.18
2017-04-27T11:01:20.972Z,43.80
2017-04-27T11:02:21.560Z,44.37
2017-04-27T11:03:22.136Z,41.99
2017-04-27T11:04:22.716Z,41.04
2017-04-27T11:05:23.295Z,41.52
2017-04-27T11:06:23.871Z,43.16
2017-04-27T11:07:24.462Z,42.47
2017-04-27T11:08:25.038Z,43.32
2017-04-27T11:09:25.619Z,43.99
2017-04-27T11:10:26.207Z,44.75
2017-04-27T11:11:26.784Z,46.66
2017-04-27T11:12:27.360Z,46.66
2017-04-27T11:13:27.938Z,47.20
2017-04-27T11:14:28.513Z,47.49
2017-04-27T11:15:29.091Z,48.82
2017-04-27T11:16:29.665Z,48.63
2017-04-27T11:17:30.254Z,48.63
2017-04-27T11:18:30.843Z,48.92
2017-04-27T11:19:31.419Z,48.63
2017-04-27T11:20:31.996Z,47.49
2017-04-27T11:21:32.572Z,46.73
2017-04-27T11:22:33.151Z,46.09
2017-04-27T11:23:33.730Z,44.75
2017-04-27T11:24:34.308Z,44.56
2017-04-27T11:25:34.887Z,44.20
2017-04-27T11:26:35.464Z,43.44
2017-04-27T11:27:36.045Z,44.01
2017-04-27T11:28:36.623Z,44.30
2017-04-27T11:29:37.215Z,43.54
2017-04-27T11:30:37.793Z,44.04
2017-04-27T11:31:38.374Z,43.96
2017-04-27T11:32:38.952Z,41.10
2017-04-27T11:33:39.528Z,41.27
2017-04-27T11:34:40.106Z,40.72
2017-04-27T11:35:40.685Z,40.24
2017-04-27T11:36:49.363Z,38.43
2017-04-27T11:37:42.838Z,37.93
2017-04-27T11:38:43.415Z,36.98
2017-04-27T11:39:43.991Z,38.41
2017-04-27T11:40:44.569Z,39.17
2017-04-27T11:41:45.158Z,39.25
2017-04-27T11:42:45.735Z,40.97
2017-04-27T11:43:46.314Z,40.97
2017-04-27T11:44:46.903Z,41.92
2017-04-27T11:45:47.480Z,41.89
2017-04-27T11:46:48.061Z,42.58
2017-04-27T11:47:48.638Z,42.47
2017-04-27T11:48:49.215Z,42.56
2017-04-27T11:49:49.795Z,42.44
2017-04-27T11:50:50.373Z,43.40
2017-04-27T11:51:50.953Z,44.37
2017-04-27T11:52:51.529Z,43.71
2017-04-27T11:53:52.106Z,44.16
2017-04-27T11:54:52.686Z,44.09
2017-04-27T11:55:53.262Z,44.06
2017-04-27T11:56:53.839Z,44.75
2017-04-27T11:57:54.417Z,44.85
2017-04-27T11:58:54.995Z,44.85
2017-04-27T11:59:55.573Z,45.61
2017-04-27T12:00:56.149Z,45.42
2017-04-27T12:01:56.726Z,45.49
2017-04-27T12:02:57.301Z,44.82
2017-04-27T12:03:57.875Z,44.64
2017-04-27T12:04:58.455Z,44.82
2017-04-27T12:05:59.030Z,44.54
2017-04-27T12:06:59.609Z,44.73
2017-04-27T12:08:00.184Z,45.30
2017-04-27T12:09:00.760Z,45.78
2017-04-27T12:10:01.336Z,47.02
2017-04-27T12:11:01.915Z,47.52
2017-04-27T12:12:02.495Z,46.75
2017-04-27T12:13:03.073Z,44.46
2017-04-27T12:14:03.651Z,42.94
2017-04-27T12:15:04.229Z,43.13
2017-04-27T12:16:04.808Z,43.16
2017-04-27T12:17:05.384Z,42.49
2017-04-27T12:18:05.963Z,42.40
2017-04-27T12:19:06.543Z,40.94
2017-04-27T12:20:07.120Z,42.08
2017-04-27T12:21:07.693Z,41.82
2017-04-27T12:22:08.283Z,42.56
2017-04-27T12:23:08.859Z,42.40
2017-04-27T12:24:09.439Z,42.77
2017-04-27T12:25:10.013Z,43.23
2017-04-27T12:26:10.590Z,42.66
2017-04-27T12:27:11.167Z,43.23
2017-04-27T12:28:11.743Z,42.37
2017-04-27T12:29:12.321Z,43.16
2017-04-27T12:30:12.910Z,41.99
2017-04-27T12:31:13.491Z,42.96
2017-04-27T12:32:14.065Z,42.87
2017-04-27T12:33:14.793Z,43.16
2017-04-27T12:34:15.370Z,43.35
2017-04-27T12:35:15.945Z,42.85
2017-04-27T12:36:16.533Z,43.90
2017-04-27T12:37:17.109Z,44.30
2017-04-27T12:38:17.686Z,44.87
2017-04-27T12:39:18.275Z,44.20
2017-04-27T12:40:18.850Z,43.42
2017-04-27T12:41:19.429Z,43.51
2017-04-27T12:42:20.028Z,43.42
2017-04-27T12:43:20.606Z,43.80
2017-04-27T12:44:21.184Z,43.91
2017-04-27T12:45:21.761Z,43.71
2017-04-27T12:46:22.336Z,44.18
2017-04-27T12:47:22.913Z,44.37
2017-04-27T12:48:23.492Z,46.09
2017-04-27T12:49:24.068Z,45.51
2017-04-27T12:50:24.646Z,45.99
2017-04-27T12:51:25.225Z,44.75
2017-04-27T12:52:25.802Z,45.99
2017-04-27T12:53:26.380Z,46.56
2017-04-27T12:54:26.956Z,48.18
2017-04-27T12:55:27.532Z,47.04
2017-04-27T12:56:28.112Z,48.66
2017-04-27T12:57:28.688Z,50.94
2017-04-27T12:58:29.267Z,49.32
2017-04-27T12:59:29.845Z,48.66